Time;durP1;ratioP1;P1;durP2;ratioP2;P2;SDS_P1;SDS_P2;PMS_P1;PMS_P2;Temp;Humidity;BMP_temperature;BMP_pressure;BME280_temperature;BME280_humidity;BME280_pressure;Samples;Min_cycle;Max_cycle;Signal;HPM_P1;HPM_P2
2022/01/14 00:01:56;;;;;;;40.03;16.63;;;;;;;;;;5008618;28;20076;-61
2022/01/14 00:04:22;;;;;;;33.58;13.65;;;;;;;;;;5039512;28;20409;-61
2022/01/14 00:06:49;;;;;;;38.15;15.93;;;;;;;;;;5008798;28;20053;-62
2022/01/14 00:09:16;;;;;;;40.55;17.25;;;;;;;;;;5009679;28;20046;-61
2022/01/14 00:11:48;;;;;;;44.67;17.15;;;;;;;;;;5009028;28;20084;-61
2022/01/14 00:16:42;;;;;;;43.20;17.80;;;;;;;;;;5010450;28;20045;-61
2022/01/14 00:19:08;;;;;;;39.15;15.13;;;;;;;;;;5010811;28;20445;-61
2022/01/14 00:21:36;;;;;;;35.35;15.90;;;;;;;;;;5009873;28;20053;-61
2022/01/14 00:24:07;;;;;;;29.55;15.93;;;;;;;;;;5010166;28;20521;-61
2022/01/14 00:32:10;;;;;;;35.80;15.77;;;;;;;;;;5009799;28;20045;-61
2022/01/14 00:34:36;;;;;;;28.37;13.90;;;;;;;;;;5009726;28;20052;-61
2022/01/14 00:37:02;;;;;;;37.30;15.73;;;;;;;;;;5010420;28;20549;-62
2022/01/14 00:39:29;;;;;;;44.30;15.55;;;;;;;;;;5009257;28;20433;-61
2022/01/14 00:41:55;;;;;;;34.05;15.15;;;;;;;;;;5009295;28;20389;-61
2022/01/14 00:44:21;;;;;;;36.67;15.02;;;;;;;;;;5013817;28;20050;-62
2022/01/14 00:46:48;;;;;;;37.25;15.07;;;;;;;;;;5014617;28;20034;-61
2022/01/14 00:49:15;;;;;;;33.10;14.63;;;;;;;;;;5045920;28;20125;-61
2022/01/14 00:51:41;;;;;;;41.13;16.15;;;;;;;;;;5013725;28;20042;-61
2022/01/14 00:54:08;;;;;;;41.13;16.92;;;;;;;;;;5014424;28;20477;-61
2022/01/14 00:59:14;;;;;;;43.67;16.85;;;;;;;;;;5043907;28;21829;-62
2022/01/14 01:01:42;;;;;;;38.28;15.60;;;;;;;;;;5013144;28;20041;-61
2022/01/14 01:04:08;;;;;;;36.25;17.65;;;;;;;;;;5014508;28;20069;-62
2022/01/14 01:06:35;;;;;;;42.05;17.02;;;;;;;;;;5005919;28;20068;-61
2022/01/14 01:09:02;;;;;;;38.22;16.63;;;;;;;;;;5008303;28;20535;-61
2022/01/14 01:11:34;;;;;;;33.85;16.90;;;;;;;;;;5011083;28;20053;-62
2022/01/14 01:14:07;;;;;;;42.75;16.90;;;;;;;;;;5010861;28;20049;-61
2022/01/14 01:16:33;;;;;;;38.45;16.45;;;;;;;;;;5013015;28;20074;-61
2022/01/14 01:18:59;;;;;;;38.67;17.33;;;;;;;;;;5013527;28;20037;-61
2022/01/14 01:21:26;;;;;;;39.15;17.00;;;;;;;;;;5013717;28;20077;-61
2022/01/14 01:23:52;;;;;;;41.47;17.67;;;;;;;;;;5013702;28;20042;-61
2022/01/14 01:26:30;;;;;;;39.70;17.13;;;;;;;;;;5011857;28;20049;-61
2022/01/14 01:31:38;;;;;;;45.83;17.10;;;;;;;;;;5013512;28;20473;-61
2022/01/14 01:34:12;;;;;;;35.55;18.10;;;;;;;;;;5011038;28;20042;-61
2022/01/14 01:36:40;;;;;;;48.30;18.45;;;;;;;;;;5010410;28;20046;-61
2022/01/14 01:39:07;;;;;;;43.40;16.52;;;;;;;;;;5012637;28;20046;-61
2022/01/14 01:41:35;;;;;;;38.78;18.65;;;;;;;;;;5012604;28;20559;-62
2022/01/14 01:44:01;;;;;;;44.60;19.35;;;;;;;;;;5013532;28;20399;-61
2022/01/14 01:46:27;;;;;;;42.70;17.33;;;;;;;;;;5012232;28;20085;-61
2022/01/14 01:48:54;;;;;;;43.00;17.65;;;;;;;;;;5012650;28;20485;-61
2022/01/14 01:51:21;;;;;;;43.30;17.98;;;;;;;;;;5013598;28;20042;-61
2022/01/14 01:53:48;;;;;;;48.25;18.75;;;;;;;;;;5013376;28;20056;-61
2022/01/14 01:56:14;;;;;;;44.53;18.27;;;;;;;;;;5011129;28;20504;-61
2022/01/14 01:58:41;;;;;;;41.53;18.88;;;;;;;;;;5010916;28;20048;-61
2022/01/14 02:01:07;;;;;;;44.72;18.98;;;;;;;;;;5011892;28;20121;-61
2022/01/14 02:03:34;;;;;;;42.70;19.48;;;;;;;;;;5012897;28;20052;-61
2022/01/14 02:06:01;;;;;;;39.42;18.05;;;;;;;;;;5013291;28;20508;-62
2022/01/14 02:08:28;;;;;;;48.15;19.23;;;;;;;;;;5010666;28;20370;-61
2022/01/14 02:10:54;;;;;;;40.80;18.58;;;;;;;;;;5014275;28;20072;-61
2022/01/14 02:13:20;;;;;;;34.38;17.08;;;;;;;;;;5013065;28;20041;-61
2022/01/14 02:16:01;;;;;;;42.25;17.23;;;;;;;;;;5007681;28;20129;-61
2022/01/14 02:18:33;;;;;;;38.80;19.92;;;;;;;;;;5008882;28;20103;-61
2022/01/14 02:23:50;;;;;;;48.53;17.55;;;;;;;;;;5011923;28;20046;-61
2022/01/14 02:26:18;;;;;;;48.17;19.08;;;;;;;;;;5012685;28;20417;-61
2022/01/14 02:28:45;;;;;;;34.70;17.92;;;;;;;;;;5013167;28;20042;-61
2022/01/14 02:31:11;;;;;;;41.40;18.65;;;;;;;;;;5012387;28;20104;-61
2022/01/14 02:33:37;;;;;;;38.88;19.52;;;;;;;;;;5012909;28;20057;-61
2022/01/14 02:36:03;;;;;;;44.47;19.98;;;;;;;;;;5012030;28;20497;-61
2022/01/14 02:38:30;;;;;;;47.00;18.40;;;;;;;;;;5010066;28;20100;-61
2022/01/14 02:40:57;;;;;;;38.30;20.45;;;;;;;;;;5012556;28;20100;-61
2022/01/14 02:43:25;;;;;;;48.70;20.77;;;;;;;;;;5009950;28;20038;-61
2022/01/14 02:45:53;;;;;;;49.88;19.27;;;;;;;;;;5012408;28;20490;-61
2022/01/14 02:48:21;;;;;;;35.80;16.90;;;;;;;;;;5011401;28;20113;-61
2022/01/14 02:50:57;;;;;;;46.25;18.35;;;;;;;;;;5010995;28;20081;-61
2022/01/14 02:53:31;;;;;;;44.50;17.85;;;;;;;;;;5012485;28;20107;-61
2022/01/14 02:55:59;;;;;;;41.78;18.67;;;;;;;;;;5012247;28;20124;-61
2022/01/14 02:58:27;;;;;;;44.05;18.05;;;;;;;;;;5010202;28;20042;-61
2022/01/14 03:00:54;;;;;;;34.92;17.23;;;;;;;;;;5012319;28;20081;-61
2022/01/14 03:03:27;;;;;;;41.53;18.58;;;;;;;;;;5012365;28;20470;-61
2022/01/14 03:05:53;;;;;;;58.10;20.17;;;;;;;;;;5010587;28;20043;-62
2022/01/14 03:08:20;;;;;;;35.47;16.88;;;;;;;;;;5011494;28;20104;-62
2022/01/14 03:10:49;;;;;;;41.33;16.40;;;;;;;;;;5011309;28;20470;-62
2022/01/14 03:13:15;;;;;;;45.13;19.13;;;;;;;;;;5011350;28;20383;-61
2022/01/14 03:15:42;;;;;;;36.28;18.85;;;;;;;;;;5011768;28;20067;-62
2022/01/14 03:18:08;;;;;;;34.03;17.13;;;;;;;;;;5010129;28;20073;-62
2022/01/14 03:23:07;;;;;;;40.30;16.40;;;;;;;;;;5012469;28;20030;-62
2022/01/14 03:25:49;;;;;;;38.00;16.50;;;;;;;;;;5011183;28;20050;-62
2022/01/14 03:28:16;;;;;;;42.80;16.65;;;;;;;;;;5009823;28;20046;-62
2022/01/14 03:30:42;;;;;;;52.65;17.90;;;;;;;;;;5010372;28;20521;-62
2022/01/14 03:33:09;;;;;;;34.22;15.63;;;;;;;;;;5009721;28;20050;-62
2022/01/14 03:35:35;;;;;;;34.60;16.63;;;;;;;;;;5009923;28;20042;-62
2022/01/14 03:38:01;;;;;;;39.88;17.08;;;;;;;;;;5009757;28;20046;-62
2022/01/14 03:40:28;;;;;;;38.28;17.40;;;;;;;;;;5010830;28;20101;-62
2022/01/14 03:42:54;;;;;;;38.97;17.85;;;;;;;;;;5010240;28;20041;-62
2022/01/14 03:45:20;;;;;;;36.03;17.00;;;;;;;;;;5011681;28;20211;-62
2022/01/14 03:47:46;;;;;;;37.03;17.80;;;;;;;;;;5010633;28;20049;-62
2022/01/14 03:50:12;;;;;;;35.72;16.67;;;;;;;;;;5011435;28;20046;-61
2022/01/14 03:52:38;;;;;;;37.65;18.50;;;;;;;;;;5008066;28;20040;-62
2022/01/14 03:55:05;;;;;;;44.47;17.10;;;;;;;;;;5010730;28;20555;-62
2022/01/14 03:57:31;;;;;;;34.47;17.88;;;;;;;;;;5012154;28;20046;-61
2022/01/14 03:59:57;;;;;;;37.20;18.05;;;;;;;;;;5011344;28;20447;-62
2022/01/14 04:02:23;;;;;;;39.78;16.50;;;;;;;;;;5011110;28;20143;-62
2022/01/14 04:04:49;;;;;;;37.17;16.48;;;;;;;;;;5011875;28;20045;-62
2022/01/14 04:07:15;;;;;;;44.05;16.98;;;;;;;;;;5011492;28;20058;-62
2022/01/14 04:09:41;;;;;;;48.33;17.20;;;;;;;;;;5011294;28;20046;-61
2022/01/14 04:12:15;;;;;;;31.02;16.60;;;;;;;;;;5010595;28;20050;-62
2022/01/14 04:17:13;;;;;;;35.53;15.80;;;;;;;;;;5010952;28;20057;-62
2022/01/14 04:19:39;;;;;;;37.35;15.05;;;;;;;;;;5015669;28;20131;-62
2022/01/14 04:22:05;;;;;;;41.50;14.63;;;;;;;;;;5015070;28;20046;-62
2022/01/14 04:24:31;;;;;;;31.88;14.40;;;;;;;;;;5015828;28;20038;-62
2022/01/14 04:26:58;;;;;;;34.60;15.90;;;;;;;;;;5015881;28;20038;-62
2022/01/14 04:29:24;;;;;;;43.75;16.65;;;;;;;;;;5013665;28;20052;-62
2022/01/14 04:31:50;;;;;;;32.15;15.18;;;;;;;;;;5009053;28;20489;-61
2022/01/14 04:34:16;;;;;;;37.40;15.63;;;;;;;;;;5008273;28;20064;-62
2022/01/14 04:36:43;;;;;;;36.95;15.23;;;;;;;;;;5011931;28;20125;-62
2022/01/14 04:39:09;;;;;;;40.05;17.02;;;;;;;;;;5015477;28;20488;-62
2022/01/14 04:41:35;;;;;;;36.83;16.67;;;;;;;;;;5015418;28;20065;-62
2022/01/14 04:44:02;;;;;;;35.33;16.08;;;;;;;;;;5013418;28;20409;-62
2022/01/14 04:48:56;;;;;;;39.63;17.90;;;;;;;;;;5014125;28;20061;-62
2022/01/14 04:51:22;;;;;;;35.60;16.60;;;;;;;;;;5014032;28;20088;-63
2022/01/14 04:53:49;;;;;;;36.85;16.50;;;;;;;;;;5013735;28;20034;-62
2022/01/14 04:56:15;;;;;;;44.55;19.00;;;;;;;;;;5014834;28;20056;-62
2022/01/14 04:58:41;;;;;;;34.40;16.15;;;;;;;;;;5013915;28;20046;-62
2022/01/14 05:01:07;;;;;;;38.95;16.17;;;;;;;;;;5014525;28;20044;-62
2022/01/14 05:03:33;;;;;;;36.42;17.92;;;;;;;;;;5014284;28;20057;-62
2022/01/14 05:06:05;;;;;;;31.65;16.67;;;;;;;;;;5013175;28;20458;-62
2022/01/14 05:08:37;;;;;;;35.72;15.82;;;;;;;;;;5043795;28;20091;-62
2022/01/14 05:11:20;;;;;;;36.75;17.80;;;;;;;;;;5013578;28;20042;-62
2022/01/14 05:13:46;;;;;;;44.88;16.65;;;;;;;;;;5013940;28;20045;-62
2022/01/14 05:16:13;;;;;;;33.13;15.18;;;;;;;;;;5011542;28;20057;-62
2022/01/14 05:18:39;;;;;;;38.13;15.52;;;;;;;;;;5005751;28;20435;-62
2022/01/14 05:21:06;;;;;;;36.95;15.82;;;;;;;;;;5009484;28;20121;-62
2022/01/14 05:23:32;;;;;;;35.42;16.40;;;;;;;;;;5009143;28;20053;-62
2022/01/14 05:25:58;;;;;;;40.97;17.75;;;;;;;;;;5010065;28;20436;-62
2022/01/14 05:28:24;;;;;;;34.03;15.55;;;;;;;;;;5012121;28;20128;-62
2022/01/14 05:30:50;;;;;;;34.47;17.55;;;;;;;;;;5013230;28;20124;-62
2022/01/14 05:33:17;;;;;;;40.97;16.80;;;;;;;;;;5011690;28;20050;-62
2022/01/14 05:35:43;;;;;;;31.95;15.13;;;;;;;;;;5013736;28;20509;-62
2022/01/14 05:38:10;;;;;;;29.85;14.35;;;;;;;;;;5012338;28;20044;-62
2022/01/14 05:40:36;;;;;;;32.10;14.13;;;;;;;;;;5010902;28;20042;-62
2022/01/14 05:43:02;;;;;;;33.60;14.10;;;;;;;;;;5011103;28;20052;-62
2022/01/14 05:45:28;;;;;;;30.45;13.90;;;;;;;;;;5013733;28;20092;-62
2022/01/14 05:47:55;;;;;;;35.15;13.52;;;;;;;;;;5013143;28;20139;-62
2022/01/14 05:50:22;;;;;;;31.10;14.93;;;;;;;;;;5012110;28;20063;-62
2022/01/14 05:52:48;;;;;;;29.85;13.35;;;;;;;;;;5011752;28;20474;-62
2022/01/14 05:55:15;;;;;;;33.88;14.93;;;;;;;;;;5012582;28;20143;-62
2022/01/14 05:57:41;;;;;;;38.83;14.13;;;;;;;;;;5011367;28;20054;-62
2022/01/14 06:00:09;;;;;;;37.53;14.88;;;;;;;;;;5010785;28;20049;-62
2022/01/14 06:02:35;;;;;;;32.53;13.85;;;;;;;;;;5013269;28;20457;-62
2022/01/14 06:05:01;;;;;;;37.58;13.60;;;;;;;;;;5012366;28;20037;-62
2022/01/14 06:07:27;;;;;;;42.47;15.02;;;;;;;;;;5014559;28;20057;-62
2022/01/14 06:09:53;;;;;;;39.53;15.65;;;;;;;;;;5017604;28;20140;-62
2022/01/14 06:12:19;;;;;;;30.25;12.77;;;;;;;;;;5011857;28;20100;-62
2022/01/14 06:14:46;;;;;;;29.90;12.70;;;;;;;;;;5012943;28;20048;-62
2022/01/14 06:17:12;;;;;;;37.22;13.48;;;;;;;;;;5011927;28;20033;-63
2022/01/14 06:19:38;;;;;;;39.88;13.30;;;;;;;;;;5015658;28;20052;-62
2022/01/14 06:22:04;;;;;;;33.17;12.93;;;;;;;;;;5012214;28;20051;-62
2022/01/14 06:24:30;;;;;;;41.42;13.48;;;;;;;;;;5013288;28;20037;-62
2022/01/14 06:26:56;;;;;;;29.27;12.57;;;;;;;;;;5015272;28;20058;-63
2022/01/14 06:29:22;;;;;;;32.35;13.13;;;;;;;;;;5015136;28;20117;-62
2022/01/14 06:31:49;;;;;;;34.22;13.63;;;;;;;;;;5017239;28;20457;-63
2022/01/14 06:34:15;;;;;;;30.77;12.93;;;;;;;;;;5030375;28;20369;-63
2022/01/14 06:36:42;;;;;;;32.97;12.70;;;;;;;;;;5029992;28;20045;-62
2022/01/14 06:39:08;;;;;;;34.47;13.23;;;;;;;;;;5030301;28;20421;-62
2022/01/14 06:41:34;;;;;;;32.38;12.40;;;;;;;;;;5030667;28;20111;-62
2022/01/14 06:44:01;;;;;;;31.55;10.45;;;;;;;;;;5028674;28;20123;-62
2022/01/14 06:46:27;;;;;;;40.20;11.45;;;;;;;;;;5031433;28;20064;-62
2022/01/14 06:48:53;;;;;;;29.30;10.98;;;;;;;;;;5030274;28;20485;-61
2022/01/14 06:51:19;;;;;;;30.55;10.43;;;;;;;;;;5014418;28;20382;-62
2022/01/14 06:53:45;;;;;;;33.22;11.85;;;;;;;;;;5012986;28;20394;-62
2022/01/14 06:56:14;;;;;;;26.88;9.40;;;;;;;;;;5013971;28;20045;-62
2022/01/14 06:58:40;;;;;;;32.67;10.07;;;;;;;;;;5029902;28;20549;-62
2022/01/14 07:01:06;;;;;;;35.30;11.60;;;;;;;;;;5020376;28;20116;-62
2022/01/14 07:03:32;;;;;;;35.40;11.10;;;;;;;;;;5022146;28;20050;-62
2022/01/14 07:05:58;;;;;;;28.35;9.77;;;;;;;;;;5029442;28;20509;-62
2022/01/14 07:08:24;;;;;;;25.13;10.15;;;;;;;;;;5029955;28;20053;-62
2022/01/14 07:10:51;;;;;;;25.23;9.63;;;;;;;;;;5014515;28;20092;-62
2022/01/14 07:13:17;;;;;;;30.38;8.68;;;;;;;;;;5013707;28;20045;-62
2022/01/14 07:15:43;;;;;;;27.60;10.18;;;;;;;;;;5012487;28;20050;-62
2022/01/14 07:18:10;;;;;;;31.48;9.23;;;;;;;;;;5028326;28;20045;-62
2022/01/14 07:20:37;;;;;;;26.70;8.85;;;;;;;;;;5015690;28;20045;-62
2022/01/14 07:23:03;;;;;;;33.00;10.23;;;;;;;;;;5012446;28;20112;-62
2022/01/14 07:25:29;;;;;;;28.83;9.75;;;;;;;;;;5028177;28;20117;-63
2022/01/14 07:27:57;;;;;;;32.40;9.80;;;;;;;;;;5012334;28;20030;-62
2022/01/14 07:30:23;;;;;;;24.60;8.35;;;;;;;;;;5006833;28;20084;-62
2022/01/14 07:32:50;;;;;;;23.05;7.35;;;;;;;;;;5027889;28;20052;-62
2022/01/14 07:35:16;;;;;;;26.65;7.88;;;;;;;;;;5012449;28;20413;-62
2022/01/14 07:37:42;;;;;;;30.50;8.65;;;;;;;;;;5026766;28;20076;-62
2022/01/14 07:40:09;;;;;;;26.27;8.25;;;;;;;;;;5009875;28;20042;-62
2022/01/14 07:42:35;;;;;;;20.67;7.57;;;;;;;;;;5013276;28;20045;-62
2022/01/14 07:45:02;;;;;;;26.10;8.27;;;;;;;;;;5012024;28;20061;-62
2022/01/14 07:47:28;;;;;;;25.42;7.00;;;;;;;;;;5010317;28;20448;-62
2022/01/14 07:49:54;;;;;;;28.98;7.38;;;;;;;;;;5013318;28;20085;-62
2022/01/14 07:52:20;;;;;;;21.25;7.03;;;;;;;;;;5030578;28;20425;-62
2022/01/14 07:54:46;;;;;;;16.45;6.97;;;;;;;;;;5028618;28;20046;-61
2022/01/14 07:57:13;;;;;;;14.68;6.82;;;;;;;;;;5018395;28;20401;-62
2022/01/14 07:59:39;;;;;;;23.88;7.57;;;;;;;;;;5012957;28;20042;-62
2022/01/14 08:02:06;;;;;;;21.17;7.78;;;;;;;;;;5011652;28;20064;-62
2022/01/14 08:04:35;;;;;;;22.42;6.85;;;;;;;;;;5008288;28;20135;-62
2022/01/14 08:07:12;;;;;;;18.88;7.35;;;;;;;;;;5010960;28;20738;-62
2022/01/14 08:09:39;;;;;;;24.33;7.43;;;;;;;;;;5018584;28;20141;-62
2022/01/14 08:12:06;;;;;;;19.58;7.07;;;;;;;;;;5001981;28;20042;-63
2022/01/14 08:14:32;;;;;;;23.08;7.20;;;;;;;;;;5019359;28;20038;-63
2022/01/14 08:16:58;;;;;;;20.23;5.45;;;;;;;;;;5015755;28;20041;-63
2022/01/14 08:19:24;;;;;;;25.15;7.18;;;;;;;;;;5001424;28;20121;-63
2022/01/14 08:21:51;;;;;;;21.00;6.40;;;;;;;;;;5000187;28;20039;-62
2022/01/14 08:24:17;;;;;;;26.08;7.03;;;;;;;;;;5005455;28;20153;-62
2022/01/14 08:26:43;;;;;;;15.57;5.70;;;;;;;;;;5000030;28;20155;-63
2022/01/14 08:29:09;;;;;;;23.35;6.63;;;;;;;;;;5005072;28;20078;-62
2022/01/14 08:31:35;;;;;;;21.13;6.60;;;;;;;;;;5007867;28;20104;-63
2022/01/14 08:34:01;;;;;;;22.00;5.88;;;;;;;;;;5000825;28;20129;-62
2022/01/14 08:36:29;;;;;;;17.70;6.13;;;;;;;;;;5010594;28;20141;-62
2022/01/14 08:38:55;;;;;;;19.52;5.57;;;;;;;;;;5010130;28;20421;-63
2022/01/14 08:41:23;;;;;;;20.00;4.97;;;;;;;;;;5011497;28;20112;-62
2022/01/14 08:43:50;;;;;;;16.83;5.00;;;;;;;;;;5011198;28;20041;-62
2022/01/14 08:46:16;;;;;;;18.88;5.07;;;;;;;;;;5002236;28;20072;-62
2022/01/14 08:48:42;;;;;;;13.90;4.40;;;;;;;;;;5005704;28;20539;-63
2022/01/14 08:51:08;;;;;;;17.55;5.07;;;;;;;;;;5015725;28;20046;-62
2022/01/14 08:53:35;;;;;;;15.00;4.55;;;;;;;;;;5007853;28;20045;-62
2022/01/14 08:56:01;;;;;;;19.17;5.18;;;;;;;;;;4997881;28;20053;-63
2022/01/14 08:58:27;;;;;;;17.67;4.00;;;;;;;;;;5012749;28;20042;-66
2022/01/14 09:00:53;;;;;;;23.35;4.25;;;;;;;;;;5010452;28;20061;-67
2022/01/14 09:03:19;;;;;;;19.17;4.57;;;;;;;;;;4999094;28;20057;-67
2022/01/14 09:05:46;;;;;;;14.68;3.85;;;;;;;;;;5007498;28;20160;-67
2022/01/14 09:08:12;;;;;;;18.52;4.45;;;;;;;;;;5012891;28;20042;-65
2022/01/14 09:10:39;;;;;;;14.23;5.07;;;;;;;;;;5014972;28;20137;-66
2022/01/14 09:13:05;;;;;;;25.95;4.60;;;;;;;;;;5011976;28;20065;-67
2022/01/14 09:15:31;;;;;;;17.75;3.97;;;;;;;;;;5006119;28;20437;-67
2022/01/14 09:17:57;;;;;;;15.50;4.00;;;;;;;;;;5010993;28;20042;-66
2022/01/14 09:20:24;;;;;;;21.58;4.30;;;;;;;;;;5018324;28;20088;-67
2022/01/14 09:22:55;;;;;;;15.40;3.75;;;;;;;;;;5006235;28;20043;-63
2022/01/14 09:25:22;;;;;;;19.33;4.47;;;;;;;;;;5024838;28;20060;-66
2022/01/14 09:27:50;;;;;;;18.67;4.13;;;;;;;;;;5013153;28;20129;-67
2022/01/14 09:30:16;;;;;;;19.92;4.22;;;;;;;;;;5019343;28;20050;-63
2022/01/14 09:32:43;;;;;;;19.88;4.15;;;;;;;;;;5029928;28;20064;-63
2022/01/14 09:35:13;;;;;;;20.38;3.58;;;;;;;;;;5032728;28;20422;-63
2022/01/14 09:37:40;;;;;;;27.38;4.22;;;;;;;;;;5021192;28;20069;-64
2022/01/14 09:40:06;;;;;;;24.77;5.25;;;;;;;;;;5023048;28;20119;-65
2022/01/14 09:42:32;;;;;;;23.48;4.10;;;;;;;;;;5014002;28;20049;-65
2022/01/14 09:44:59;;;;;;;20.33;4.40;;;;;;;;;;5025147;28;20091;-65
2022/01/14 09:47:25;;;;;;;26.83;4.25;;;;;;;;;;5030098;28;20050;-65
2022/01/14 09:49:52;;;;;;;14.32;3.95;;;;;;;;;;5025094;28;20045;-65
2022/01/14 09:52:18;;;;;;;22.77;5.05;;;;;;;;;;5013323;28;20131;-65
2022/01/14 09:54:45;;;;;;;19.25;4.07;;;;;;;;;;5012938;28;20049;-65
2022/01/14 09:57:14;;;;;;;18.45;3.67;;;;;;;;;;5014087;28;20117;-62
2022/01/14 09:59:40;;;;;;;20.02;4.07;;;;;;;;;;5014615;28;20042;-63
2022/01/14 10:02:07;;;;;;;16.08;3.60;;;;;;;;;;5008891;28;20049;-63
2022/01/14 10:04:35;;;;;;;17.95;4.00;;;;;;;;;;5013855;28;20379;-63
2022/01/14 10:07:03;;;;;;;22.73;3.72;;;;;;;;;;5013146;28;20481;-63
2022/01/14 10:09:33;;;;;;;18.88;4.85;;;;;;;;;;5024175;28;20037;-63
2022/01/14 10:12:01;;;;;;;25.10;3.80;;;;;;;;;;5029924;28;20144;-63
2022/01/14 10:14:28;;;;;;;20.25;4.13;;;;;;;;;;5029197;28;20422;-63
2022/01/14 10:16:55;;;;;;;22.10;4.25;;;;;;;;;;5013682;28;20038;-63
2022/01/14 10:19:30;;;;;;;24.88;4.88;;;;;;;;;;5013564;28;20042;-63
2022/01/14 10:21:56;;;;;;;17.70;4.72;;;;;;;;;;5013069;28;20042;-63
2022/01/14 10:24:24;;;;;;;25.90;4.15;;;;;;;;;;5013686;28;20401;-63
2022/01/14 10:26:51;;;;;;;16.83;4.20;;;;;;;;;;5012354;28;20041;-63
2022/01/14 10:29:28;;;;;;;22.05;4.78;;;;;;;;;;5029248;28;20099;-63
2022/01/14 10:31:55;;;;;;;21.45;4.18;;;;;;;;;;5031667;28;20107;-64
2022/01/14 10:34:21;;;;;;;18.73;3.95;;;;;;;;;;5032013;28;20127;-64
2022/01/14 10:36:49;;;;;;;19.13;4.38;;;;;;;;;;5030003;28;20038;-64
2022/01/14 10:39:23;;;;;;;26.17;4.65;;;;;;;;;;5031780;28;20057;-63
2022/01/14 10:41:49;;;;;;;25.35;4.35;;;;;;;;;;5028253;28;20402;-63
2022/01/14 10:44:24;;;;;;;24.05;3.95;;;;;;;;;;5030207;28;20490;-65
2022/01/14 10:46:50;;;;;;;22.52;4.85;;;;;;;;;;5027177;28;20092;-65
2022/01/14 10:49:37;;;;;;;17.90;3.75;;;;;;;;;;5012594;28;20057;-65
2022/01/14 10:52:11;;;;;;;18.38;5.00;;;;;;;;;;5011486;28;20145;-61
2022/01/14 10:54:38;;;;;;;31.40;4.28;;;;;;;;;;5020225;28;20053;-63
2022/01/14 10:57:12;;;;;;;28.00;5.85;;;;;;;;;;5030721;28;20224;-61
2022/01/14 10:59:39;;;;;;;20.10;3.97;;;;;;;;;;5031369;28;20444;-62
2022/01/14 11:02:25;;;;;;;19.10;3.92;;;;;;;;;;5031649;28;20052;-62
2022/01/14 11:05:08;;;;;;;27.42;4.72;;;;;;;;;;5030203;28;20071;-62
2022/01/14 11:07:35;;;;;;;22.30;3.97;;;;;;;;;;5012272;28;20062;-63
2022/01/14 11:10:01;;;;;;;23.17;4.22;;;;;;;;;;5011935;28;20080;-63
2022/01/14 11:12:29;;;;;;;24.65;5.00;;;;;;;;;;5011520;28;20046;-63
2022/01/14 11:14:56;;;;;;;24.48;5.00;;;;;;;;;;5008687;28;20050;-63
2022/01/14 11:17:22;;;;;;;22.73;4.82;;;;;;;;;;5010484;28;20104;-63
2022/01/14 11:19:49;;;;;;;18.60;3.63;;;;;;;;;;5019136;28;20128;-63
2022/01/14 11:25:00;;;;;;;19.83;4.18;;;;;;;;;;5013432;28;20045;-63
2022/01/14 11:27:26;;;;;;;23.77;4.25;;;;;;;;;;5029573;28;20049;-63
2022/01/14 11:29:58;;;;;;;21.92;4.75;;;;;;;;;;5030719;28;20045;-63
2022/01/14 11:32:25;;;;;;;23.52;5.78;;;;;;;;;;5029885;28;20058;-63
2022/01/14 11:34:51;;;;;;;19.00;4.53;;;;;;;;;;5031004;28;20393;-63
2022/01/14 11:37:28;;;;;;;24.23;4.53;;;;;;;;;;5029387;28;20049;-63
2022/01/14 11:39:55;;;;;;;25.60;4.28;;;;;;;;;;5008975;28;20118;-63
2022/01/14 11:42:38;;;;;;;27.33;4.80;;;;;;;;;;5013193;28;20474;-63
2022/01/14 11:45:06;;;;;;;20.98;4.47;;;;;;;;;;5023221;28;20092;-63
2022/01/14 11:47:41;;;;;;;16.30;4.55;;;;;;;;;;5031122;28;20096;-64
2022/01/14 11:50:27;;;;;;;22.73;4.70;;;;;;;;;;5030917;28;20045;-63
2022/01/14 11:52:53;;;;;;;17.42;4.22;;;;;;;;;;5028071;28;20481;-63
2022/01/14 11:55:20;;;;;;;19.60;4.35;;;;;;;;;;5029309;28;20049;-63
2022/01/14 11:57:47;;;;;;;28.23;4.90;;;;;;;;;;5016418;28;20561;-63
2022/01/14 12:00:27;;;;;;;32.03;7.25;;;;;;;;;;5011194;28;20072;-63
2022/01/14 12:02:54;;;;;;;25.17;5.47;;;;;;;;;;5042617;28;20477;-63
2022/01/14 12:05:22;;;;;;;27.98;5.32;;;;;;;;;;5016880;28;20064;-63
2022/01/14 12:08:04;;;;;;;23.80;5.35;;;;;;;;;;5015396;28;20397;-63
2022/01/14 12:10:31;;;;;;;35.47;6.15;;;;;;;;;;5014561;28;20487;-63
2022/01/14 12:13:16;;;;;;;27.63;6.60;;;;;;;;;;5009674;28;20118;-63
2022/01/14 12:15:54;;;;;;;30.52;5.50;;;;;;;;;;5012447;28;20104;-63
2022/01/14 12:18:40;;;;;;;29.55;5.45;;;;;;;;;;5018929;28;20528;-63
2022/01/14 12:21:07;;;;;;;21.60;5.00;;;;;;;;;;5009557;28;20061;-63
2022/01/14 12:23:33;;;;;;;24.23;5.35;;;;;;;;;;5019629;28;20042;-63
2022/01/14 12:26:13;;;;;;;31.58;6.28;;;;;;;;;;5016171;28;20069;-63
2022/01/14 12:28:39;;;;;;;21.77;5.43;;;;;;;;;;5014440;28;20063;-63
2022/01/14 12:31:05;;;;;;;26.80;4.78;;;;;;;;;;5017474;28;20049;-62
2022/01/14 12:33:41;;;;;;;36.88;6.22;;;;;;;;;;5017472;28;20034;-62
2022/01/14 12:36:09;;;;;;;27.85;5.05;;;;;;;;;;5014615;28;20045;-64
2022/01/14 12:38:35;;;;;;;24.85;5.75;;;;;;;;;;5019848;28;20045;-63
2022/01/14 12:41:01;;;;;;;27.13;6.07;;;;;;;;;;5014665;28;20069;-63
2022/01/14 12:43:29;;;;;;;50.03;5.90;;;;;;;;;;5014307;28;20050;-63
2022/01/14 12:48:45;;;;;;;25.73;5.03;;;;;;;;;;5010782;28;20047;-63
2022/01/14 12:51:13;;;;;;;23.95;4.28;;;;;;;;;;5011453;28;20049;-63
2022/01/14 12:53:52;;;;;;;34.08;4.68;;;;;;;;;;5012731;28;20044;-63
2022/01/14 12:56:20;;;;;;;20.65;5.82;;;;;;;;;;5009151;28;20113;-63
2022/01/14 12:58:51;;;;;;;21.05;4.97;;;;;;;;;;5010036;28;20514;-63
2022/01/14 13:01:17;;;;;;;39.05;6.10;;;;;;;;;;5013361;28;20469;-63
2022/01/14 13:03:44;;;;;;;29.95;4.60;;;;;;;;;;5014302;28;20038;-63
2022/01/14 13:06:10;;;;;;;32.17;7.00;;;;;;;;;;5014272;28;20137;-63
2022/01/14 13:08:37;;;;;;;31.10;5.90;;;;;;;;;;5015382;28;20513;-63
2022/01/14 13:11:04;;;;;;;35.50;6.15;;;;;;;;;;5014578;28;20128;-63
2022/01/14 13:13:31;;;;;;;36.13;6.57;;;;;;;;;;5013916;28;20134;-63
2022/01/14 13:16:02;;;;;;;38.13;6.00;;;;;;;;;;5014122;28;20413;-63
2022/01/14 13:18:33;;;;;;;34.58;5.68;;;;;;;;;;5014311;28;20052;-63
2022/01/14 13:21:00;;;;;;;38.72;5.95;;;;;;;;;;5015273;28;20046;-63
2022/01/14 13:23:26;;;;;;;26.27;4.95;;;;;;;;;;5014312;28;20536;-63
2022/01/14 13:25:52;;;;;;;35.10;6.93;;;;;;;;;;5014944;28;20045;-63
2022/01/14 13:28:20;;;;;;;35.92;4.95;;;;;;;;;;5015132;28;20045;-63
2022/01/14 13:30:46;;;;;;;28.52;7.05;;;;;;;;;;5014085;28;20524;-63
2022/01/14 13:33:14;;;;;;;30.63;6.28;;;;;;;;;;5014953;28;20120;-63
2022/01/14 13:35:41;;;;;;;29.67;5.95;;;;;;;;;;5015015;28;20046;-63
2022/01/14 13:38:09;;;;;;;35.08;5.78;;;;;;;;;;5013940;28;20236;-63
2022/01/14 13:40:43;;;;;;;30.73;5.30;;;;;;;;;;5013442;28;20046;-63
2022/01/14 13:43:12;;;;;;;43.78;7.43;;;;;;;;;;5026995;28;20053;-63
2022/01/14 13:45:41;;;;;;;37.70;6.03;;;;;;;;;;5025286;28;20393;-62
2022/01/14 13:48:25;;;;;;;39.72;6.78;;;;;;;;;;5011749;28;20065;-63
2022/01/14 13:50:53;;;;;;;35.22;5.55;;;;;;;;;;5014493;28;20049;-73
2022/01/14 13:53:22;;;;;;;53.95;6.55;;;;;;;;;;5019135;28;20179;-64
2022/01/14 13:55:51;;;;;;;57.25;6.90;;;;;;;;;;5014770;28;20049;-63
2022/01/14 13:58:20;;;;;;;53.95;7.22;;;;;;;;;;5015427;28;20059;-63
2022/01/14 14:00:47;;;;;;;37.70;6.50;;;;;;;;;;5023258;28;20041;-63
2022/01/14 14:03:22;;;;;;;37.75;6.85;;;;;;;;;;5022287;28;20401;-63
2022/01/14 14:05:53;;;;;;;43.10;6.63;;;;;;;;;;5010038;28;20053;-64
2022/01/14 14:08:35;;;;;;;46.88;6.68;;;;;;;;;;5041617;28;20062;-63
2022/01/14 14:16:42;;;;;;;52.63;6.40;;;;;;;;;;5011383;28;20046;-63
2022/01/14 14:19:08;;;;;;;62.00;7.80;;;;;;;;;;5013529;28;20042;-63
2022/01/14 14:21:35;;;;;;;50.78;7.30;;;;;;;;;;5014086;28;20046;-63
2022/01/14 14:24:03;;;;;;;50.30;9.40;;;;;;;;;;5012243;28;20033;-64
2022/01/14 14:26:30;;;;;;;40.92;8.10;;;;;;;;;;5011591;28;20081;-63
2022/01/14 14:28:58;;;;;;;62.55;8.52;;;;;;;;;;5011075;28;20481;-64
2022/01/14 14:31:26;;;;;;;51.92;7.43;;;;;;;;;;5009233;28;20137;-63
2022/01/14 14:33:53;;;;;;;48.15;7.28;;;;;;;;;;5038193;28;20109;-63
2022/01/14 14:36:21;;;;;;;46.90;7.20;;;;;;;;;;5010391;28;20049;-63
2022/01/14 14:38:48;;;;;;;61.88;8.30;;;;;;;;;;5013571;28;20446;-63
2022/01/14 14:41:14;;;;;;;56.30;8.25;;;;;;;;;;5010019;28;20060;-63
2022/01/14 14:43:40;;;;;;;55.60;7.97;;;;;;;;;;5013699;28;20043;-73
2022/01/14 14:46:10;;;;;;;47.53;7.60;;;;;;;;;;5042022;28;20081;-63
2022/01/14 14:48:36;;;;;;;50.80;8.00;;;;;;;;;;5012780;28;20512;-63
2022/01/14 14:51:03;;;;;;;60.50;8.73;;;;;;;;;;5011057;28;20046;-63
2022/01/14 14:53:29;;;;;;;53.05;7.82;;;;;;;;;;5020787;28;20048;-63
2022/01/14 14:55:55;;;;;;;46.92;8.02;;;;;;;;;;5030747;28;20045;-64
2022/01/14 14:58:21;;;;;;;59.97;8.65;;;;;;;;;;5031001;28;20379;-63
2022/01/14 15:00:47;;;;;;;49.45;8.60;;;;;;;;;;5029589;28;20052;-63
2022/01/14 15:03:15;;;;;;;58.05;8.38;;;;;;;;;;5021918;28;20050;-63